Time;durP1;ratioP1;P1;durP2;ratioP2;P2;SDS_P1;SDS_P2;PMS_P1;PMS_P2;Temp;Humidity;BMP_temperature;BMP_pressure;BME280_temperature;BME280_humidity;BME280_pressure;Samples;Min_cycle;Max_cycle;Signal;HPM_P1;HPM_P2
2024/02/04 00:02:16;;;;;;;6.57;1.40;;;8.60;99.90;;;;;;5057997;28;20211;-67
2024/02/04 00:04:45;;;;;;;10.03;1.93;;;8.60;99.90;;;;;;5047555;28;20302;-67
2024/02/04 00:07:12;;;;;;;7.03;2.00;;;8.60;99.90;;;;;;5048424;28;20557;-67
2024/02/04 00:09:39;;;;;;;6.03;1.70;;;8.70;99.90;;;;;;5046492;28;20764;-67
2024/02/04 00:12:06;;;;;;;7.37;1.83;;;8.70;99.90;;;;;;5049060;28;20309;-67
2024/02/04 00:14:33;;;;;;;11.53;2.23;;;8.70;99.90;;;;;;5049237;28;20197;-67
2024/02/04 00:17:00;;;;;;;10.67;2.07;;;8.70;99.90;;;;;;5050856;28;20221;-67
2024/02/04 00:19:27;;;;;;;9.87;2.20;;;8.70;99.90;;;;;;5049126;28;20222;-67
2024/02/04 00:21:56;;;;;;;12.50;2.27;;;8.70;99.90;;;;;;5049317;28;20200;-67
2024/02/04 00:24:23;;;;;;;9.23;1.80;;;8.70;99.90;;;;;;5048459;28;20221;-67
2024/02/04 00:26:50;;;;;;;6.10;1.40;;;8.70;99.90;;;;;;5050763;28;20275;-68
2024/02/04 00:29:17;;;;;;;11.53;2.33;;;8.70;99.90;;;;;;5049747;28;20197;-67
2024/02/04 00:31:44;;;;;;;8.47;2.33;;;8.70;99.90;;;;;;5049296;28;20225;-67
2024/02/04 00:34:11;;;;;;;10.57;2.27;;;8.80;99.90;;;;;;5049048;28;20826;-67
2024/02/04 00:36:38;;;;;;;7.60;2.00;;;8.80;99.90;;;;;;5043740;28;20221;-66
2024/02/04 00:39:07;;;;;;;10.93;2.17;;;8.80;99.90;;;;;;5050496;28;20197;-66
2024/02/04 00:41:34;;;;;;;10.93;2.10;;;8.80;99.90;;;;;;5049974;28;20196;-67
2024/02/04 00:44:02;;;;;;;5.17;1.80;;;8.80;99.90;;;;;;5047566;28;20225;-67
2024/02/04 00:46:29;;;;;;;9.93;1.90;;;8.80;99.90;;;;;;5050541;28;20217;-67
2024/02/04 00:48:56;;;;;;;6.60;2.17;;;8.70;99.90;;;;;;5047719;28;20258;-67
2024/02/04 00:51:23;;;;;;;11.70;1.83;;;8.70;99.90;;;;;;5048957;28;20192;-67
2024/02/04 00:53:50;;;;;;;5.07;2.20;;;8.70;99.90;;;;;;5042015;28;20281;-67
2024/02/04 00:56:19;;;;;;;13.20;2.53;;;8.60;99.90;;;;;;5049307;28;20233;-67
2024/02/04 00:58:46;;;;;;;8.10;2.33;;;8.30;99.90;;;;;;5044082;28;20291;-67
2024/02/04 01:01:13;;;;;;;10.30;2.10;;;8.60;99.90;;;;;;5048781;28;20273;-67
2024/02/04 01:03:40;;;;;;;8.83;2.07;;;8.60;99.90;;;;;;5047936;28;20228;-67
2024/02/04 01:06:07;;;;;;;9.43;1.77;;;8.60;99.90;;;;;;5045998;28;20202;-68
2024/02/04 01:08:35;;;;;;;11.53;2.00;;;8.60;99.90;;;;;;5049870;28;20217;-68
2024/02/04 01:11:02;;;;;;;6.07;1.87;;;8.60;99.90;;;;;;5048134;28;20210;-66
2024/02/04 01:13:30;;;;;;;5.60;1.87;;;8.50;99.90;;;;;;5049439;28;20274;-67
2024/02/04 01:15:57;;;;;;;4.93;1.50;;;8.50;99.90;;;;;;5048248;28;20190;-68
2024/02/04 01:18:24;;;;;;;9.93;2.17;;;8.50;99.90;;;;;;5045792;28;20213;-68
2024/02/04 01:20:51;;;;;;;12.40;2.00;;;8.50;99.90;;;;;;5044092;28;20203;-68
2024/02/04 01:23:18;;;;;;;7.70;2.07;;;8.50;99.90;;;;;;5049678;28;20197;-68
2024/02/04 01:25:45;;;;;;;10.77;1.90;;;8.50;99.90;;;;;;5047497;28;20217;-68
2024/02/04 01:28:12;;;;;;;10.77;2.17;;;8.60;99.90;;;;;;5048390;28;20212;-68
2024/02/04 01:30:41;;;;;;;11.27;2.63;;;8.60;99.90;;;;;;5048133;28;20244;-68
2024/02/04 01:33:08;;;;;;;8.43;2.00;;;8.60;99.90;;;;;;5048591;28;20202;-68
2024/02/04 01:35:35;;;;;;;4.87;1.70;;;8.50;99.90;;;;;;5046108;28;20200;-66
2024/02/04 01:38:02;;;;;;;8.70;1.90;;;8.60;99.90;;;;;;5048819;28;20226;-67
2024/02/04 01:40:29;;;;;;;14.60;2.40;;;8.50;99.90;;;;;;5048500;28;20255;-67
2024/02/04 01:42:56;;;;;;;8.83;1.80;;;8.60;99.90;;;;;;5049215;28;20266;-67
2024/02/04 01:45:24;;;;;;;5.63;1.57;;;8.60;99.90;;;;;;5049316;28;20206;-67
2024/02/04 01:47:53;;;;;;;11.93;2.20;;;8.60;99.90;;;;;;5049172;28;20211;-67
2024/02/04 01:50:21;;;;;;;10.63;2.33;;;8.60;99.90;;;;;;5049057;28;20224;-67
2024/02/04 01:52:49;;;;;;;10.27;2.30;;;8.60;99.90;;;;;;5067042;28;20189;-66
2024/02/04 01:55:16;;;;;;;11.77;2.80;;;8.60;99.90;;;;;;5077486;28;20226;-67
2024/02/04 01:57:44;;;;;;;6.77;2.07;;;8.60;99.90;;;;;;5077948;28;20265;-67
2024/02/04 02:00:12;;;;;;;11.63;2.13;;;8.50;99.90;;;;;;5064643;28;20576;-67
2024/02/04 02:02:41;;;;;;;5.47;1.67;;;8.50;99.90;;;;;;5053807;28;20606;-67
2024/02/04 02:05:10;;;;;;;12.87;2.17;;;8.50;99.90;;;;;;5051044;28;20273;-68
2024/02/04 02:07:37;;;;;;;10.23;2.17;;;8.50;99.90;;;;;;5052872;28;20523;-68
2024/02/04 02:10:07;;;;;;;7.23;2.03;;;8.50;99.90;;;;;;5049503;28;20648;-67
2024/02/04 02:12:40;;;;;;;8.63;2.17;;;8.50;99.90;;;;;;5052640;28;20194;-68
2024/02/04 02:15:12;;;;;;;11.17;2.27;;;8.50;99.90;;;;;;5050552;28;20187;-68
2024/02/04 02:17:49;;;;;;;3.60;1.73;;;8.50;99.90;;;;;;5046477;28;20721;-67
2024/02/04 02:20:24;;;;;;;8.43;1.77;;;8.40;99.90;;;;;;5049245;28;20233;-67
2024/02/04 02:23:00;;;;;;;6.70;1.87;;;8.40;99.90;;;;;;5050746;28;20627;-67
2024/02/04 02:25:31;;;;;;;12.47;2.37;;;8.40;99.90;;;;;;5049561;28;20306;-68
2024/02/04 02:27:59;;;;;;;6.90;1.73;;;8.30;99.90;;;;;;5050707;28;20194;-68
2024/02/04 02:30:26;;;;;;;10.23;2.23;;;8.40;99.90;;;;;;5052594;28;20248;-68
2024/02/04 02:32:53;;;;;;;7.67;1.93;;;8.30;99.90;;;;;;5052990;28;20189;-68
2024/02/04 02:35:21;;;;;;;10.10;1.90;;;8.30;99.90;;;;;;5051519;28;20297;-67
2024/02/04 02:38:08;;;;;;;8.73;1.77;;;8.30;99.90;;;;;;5051835;28;20194;-67
2024/02/04 02:40:45;;;;;;;8.13;2.00;;;8.30;99.90;;;;;;5050853;28;20202;-67
2024/02/04 02:43:13;;;;;;;6.87;1.57;;;8.20;99.90;;;;;;5051494;28;20557;-68
2024/02/04 02:45:43;;;;;;;8.10;2.10;;;8.30;99.90;;;;;;5052058;28;20225;-68
2024/02/04 02:48:11;;;;;;;11.53;2.20;;;8.20;99.90;;;;;;5050012;28;20198;-68
2024/02/04 02:50:39;;;;;;;10.30;2.17;;;8.20;99.90;;;;;;5035609;28;20211;-67
2024/02/04 02:53:06;;;;;;;11.73;1.93;;;8.20;99.90;;;;;;5052121;28;20190;-68
2024/02/04 02:55:33;;;;;;;9.47;2.00;;;8.20;99.90;;;;;;5051556;28;20194;-68
2024/02/04 02:58:02;;;;;;;9.17;1.60;;;8.20;99.90;;;;;;5052454;28;20202;-67
2024/02/04 03:00:29;;;;;;;9.40;2.20;;;8.20;99.90;;;;;;5052348;28;20198;-68
2024/02/04 03:02:56;;;;;;;7.87;1.80;;;8.20;99.90;;;;;;5051413;28;20197;-68
2024/02/04 03:05:23;;;;;;;6.53;1.73;;;8.20;99.90;;;;;;5047798;28;20226;-68
2024/02/04 03:07:50;;;;;;;10.57;2.03;;;8.30;99.90;;;;;;5049880;28;20197;-67
2024/02/04 03:10:17;;;;;;;5.30;1.67;;;8.30;99.90;;;;;;5052320;28;20331;-67
2024/02/04 03:12:44;;;;;;;10.00;1.80;;;8.30;99.90;;;;;;5045378;28;20198;-68
2024/02/04 03:15:12;;;;;;;6.90;2.00;;;8.30;99.90;;;;;;5051411;28;20197;-68
2024/02/04 03:17:39;;;;;;;10.63;1.93;;;8.30;99.90;;;;;;5052244;28;20602;-68
2024/02/04 03:20:07;;;;;;;9.20;1.97;;;8.30;99.90;;;;;;5050614;28;20203;-68
2024/02/04 03:22:34;;;;;;;10.07;2.17;;;8.30;99.90;;;;;;5051001;28;20205;-68
2024/02/04 03:25:02;;;;;;;8.23;1.83;;;8.30;99.90;;;;;;5044842;28;20675;-68
2024/02/04 03:27:29;;;;;;;7.17;1.50;;;8.30;99.90;;;;;;5049987;28;20229;-68
2024/02/04 03:29:56;;;;;;;9.33;2.20;;;8.30;99.90;;;;;;5047665;28;20289;-68
2024/02/04 03:32:25;;;;;;;12.97;2.00;;;8.30;99.90;;;;;;5049266;28;20217;-68
2024/02/04 03:34:52;;;;;;;11.67;2.30;;;8.30;99.90;;;;;;5050430;28;20194;-68
2024/02/04 03:37:19;;;;;;;6.50;1.73;;;8.30;99.90;;;;;;5048843;28;20265;-67
2024/02/04 03:39:46;;;;;;;10.60;1.93;;;8.30;99.90;;;;;;5051131;28;20232;-67
2024/02/04 03:42:13;;;;;;;12.07;2.63;;;8.30;99.90;;;;;;5050521;28;20197;-67
2024/02/04 03:44:41;;;;;;;12.70;2.17;;;8.30;99.90;;;;;;5049575;28;20567;-67
2024/02/04 03:47:07;;;;;;;10.33;1.87;;;8.30;99.90;;;;;;5051236;28;20255;-67
2024/02/04 03:49:36;;;;;;;15.13;1.97;;;8.30;99.90;;;;;;5050212;28;20615;-67
2024/02/04 03:52:04;;;;;;;8.93;1.60;;;8.20;99.90;;;;;;5050896;28;20273;-66
2024/02/04 03:54:31;;;;;;;8.53;1.80;;;8.20;99.90;;;;;;5048698;28;20201;-67
2024/02/04 03:56:58;;;;;;;10.60;2.40;;;8.20;99.90;;;;;;5048883;28;20238;-67
2024/02/04 03:59:25;;;;;;;10.63;2.50;;;8.20;99.90;;;;;;5045500;28;20202;-67
2024/02/04 04:01:54;;;;;;;9.27;1.60;;;8.20;99.90;;;;;;5050758;28;20288;-66
2024/02/04 04:04:21;;;;;;;8.13;1.97;;;8.20;99.90;;;;;;5049065;28;20265;-68
2024/02/04 04:06:50;;;;;;;13.23;2.53;;;8.20;99.90;;;;;;5050116;28;20198;-68
2024/02/04 04:09:17;;;;;;;8.27;1.90;;;8.10;99.90;;;;;;5048490;28;20191;-67
2024/02/04 04:11:44;;;;;;;9.03;2.13;;;8.10;99.90;;;;;;5047857;28;20231;-67
2024/02/04 04:14:13;;;;;;;11.87;1.90;;;8.10;99.90;;;;;;5049475;28;20198;-67
2024/02/04 04:16:40;;;;;;;6.50;1.93;;;8.10;99.90;;;;;;5049734;28;20202;-67
2024/02/04 04:19:07;;;;;;;11.53;2.07;;;8.10;99.90;;;;;;5049924;28;20218;-67
2024/02/04 04:21:35;;;;;;;5.97;1.80;;;8.10;99.90;;;;;;5048281;28;20206;-67
2024/02/04 04:24:04;;;;;;;6.97;1.50;;;8.10;99.90;;;;;;5050059;28;20199;-67
2024/02/04 04:26:31;;;;;;;6.57;1.83;;;8.10;99.90;;;;;;5049708;28;20221;-68
2024/02/04 04:28:58;;;;;;;8.30;2.13;;;8.10;99.90;;;;;;5050395;28;20200;-67
2024/02/04 04:31:25;;;;;;;6.93;1.80;;;8.10;99.90;;;;;;5049575;28;20396;-67
2024/02/04 04:33:53;;;;;;;9.60;1.80;;;8.10;99.90;;;;;;5050732;28;20312;-67
2024/02/04 04:36:20;;;;;;;7.50;2.00;;;8.10;99.90;;;;;;5041585;28;20660;-67
2024/02/04 04:38:49;;;;;;;9.57;1.97;;;8.10;99.90;;;;;;5050083;28;20298;-67
2024/02/04 04:41:18;;;;;;;8.47;2.43;;;8.10;99.90;;;;;;5049692;28;20202;-67
2024/02/04 04:43:45;;;;;;;10.47;1.97;;;8.10;99.90;;;;;;5049996;28;20194;-67
2024/02/04 04:46:12;;;;;;;5.40;1.73;;;8.10;99.90;;;;;;5049302;28;20208;-67
2024/02/04 04:48:39;;;;;;;8.03;1.97;;;8.10;99.90;;;;;;5048157;28;20201;-67
2024/02/04 04:51:09;;;;;;;13.27;2.37;;;8.10;99.90;;;;;;5049156;28;20209;-66
2024/02/04 04:53:36;;;;;;;8.77;2.00;;;8.10;99.90;;;;;;5049911;28;20261;-67
2024/02/04 04:56:03;;;;;;;10.87;2.00;;;8.10;99.90;;;;;;5045208;28;20243;-67
2024/02/04 04:58:31;;;;;;;8.93;1.57;;;8.10;99.90;;;;;;5047601;28;20289;-67
2024/02/04 05:00:58;;;;;;;13.10;1.97;;;8.10;99.90;;;;;;5050216;28;20201;-67
2024/02/04 05:03:25;;;;;;;8.57;1.90;;;8.10;99.90;;;;;;5044094;28;20197;-67
2024/02/04 05:05:52;;;;;;;12.77;1.80;;;8.10;99.90;;;;;;5043867;28;20819;-67
2024/02/04 05:08:19;;;;;;;6.50;1.70;;;8.10;99.90;;;;;;5034176;28;20226;-67
2024/02/04 05:10:46;;;;;;;4.30;1.33;;;8.10;99.90;;;;;;5049795;28;20633;-67
2024/02/04 05:13:13;;;;;;;8.87;1.70;;;8.10;99.90;;;;;;5050002;28;20607;-67
2024/02/04 05:15:41;;;;;;;7.40;1.93;;;8.10;99.90;;;;;;5048852;28;20236;-67
2024/02/04 05:18:08;;;;;;;7.90;1.73;;;8.10;99.90;;;;;;5050059;28;20209;-67
2024/02/04 05:20:35;;;;;;;10.47;2.10;;;8.10;99.90;;;;;;5048048;28;20190;-67
2024/02/04 05:23:02;;;;;;;13.03;2.03;;;8.10;99.90;;;;;;5050018;28;20206;-67
2024/02/04 05:25:30;;;;;;;8.17;1.87;;;8.10;99.90;;;;;;5049171;28;20206;-68
2024/02/04 05:27:57;;;;;;;5.97;1.43;;;8.10;99.90;;;;;;5050903;28;20285;-67
2024/02/04 05:30:24;;;;;;;7.10;1.57;;;8.10;99.90;;;;;;5053370;28;20621;-68
2024/02/04 05:32:52;;;;;;;6.93;1.77;;;8.10;99.90;;;;;;5053864;28;20211;-67
2024/02/04 05:35:20;;;;;;;7.67;1.90;;;8.10;99.90;;;;;;5051373;28;20201;-67
2024/02/04 05:37:47;;;;;;;10.97;2.07;;;8.10;99.90;;;;;;5052793;28;20290;-67
2024/02/04 05:40:17;;;;;;;9.23;1.87;;;8.10;99.90;;;;;;5053370;28;20195;-67
2024/02/04 05:42:43;;;;;;;9.33;2.03;;;8.10;99.90;;;;;;5051993;28;20205;-67
2024/02/04 05:45:11;;;;;;;8.63;1.97;;;8.10;99.90;;;;;;5053564;28;20219;-66
2024/02/04 05:47:38;;;;;;;15.13;2.40;;;8.10;99.90;;;;;;5052800;28;20584;-66
2024/02/04 05:50:07;;;;;;;10.07;2.13;;;8.10;99.90;;;;;;5052429;28;20788;-67
2024/02/04 05:52:34;;;;;;;9.10;2.00;;;8.10;99.90;;;;;;5052941;28;20196;-68
2024/02/04 05:55:01;;;;;;;11.57;2.53;;;8.20;99.90;;;;;;5053700;28;20308;-68
2024/02/04 05:57:29;;;;;;;10.40;1.97;;;8.20;99.90;;;;;;5051906;28;20746;-68
2024/02/04 05:59:56;;;;;;;13.10;2.17;;;8.20;99.90;;;;;;5052979;28;20632;-68
2024/02/04 06:02:23;;;;;;;4.80;1.70;;;8.20;99.90;;;;;;5048275;28;20202;-68
2024/02/04 06:04:50;;;;;;;6.20;1.70;;;8.20;99.90;;;;;;5052185;28;20239;-68
2024/02/04 06:07:18;;;;;;;7.70;1.60;;;8.10;99.90;;;;;;5052077;28;20194;-68
2024/02/04 06:09:45;;;;;;;13.77;2.23;;;8.20;99.90;;;;;;5050887;28;20225;-68
2024/02/04 06:12:12;;;;;;;6.40;1.87;;;8.20;99.90;;;;;;5051853;28;20289;-67
2024/02/04 06:14:39;;;;;;;5.43;1.30;;;8.20;99.90;;;;;;5053187;28;20195;-67
2024/02/04 06:17:08;;;;;;;12.87;2.13;;;8.20;99.90;;;;;;5048137;28;20201;-68
2024/02/04 06:19:35;;;;;;;7.93;1.67;;;8.20;99.90;;;;;;5052091;28;20307;-68
2024/02/04 06:22:02;;;;;;;6.77;1.43;;;8.30;99.90;;;;;;5053070;28;20199;-67
2024/02/04 06:24:30;;;;;;;8.53;2.17;;;8.30;99.90;;;;;;5051890;28;20295;-68
2024/02/04 06:26:57;;;;;;;12.17;2.40;;;8.30;99.90;;;;;;5051781;28;20243;-67
2024/02/04 06:29:24;;;;;;;12.00;2.03;;;8.30;99.90;;;;;;5058557;28;20202;-67
2024/02/04 06:31:51;;;;;;;12.00;2.27;;;8.30;99.90;;;;;;5077886;28;20177;-67
2024/02/04 06:34:18;;;;;;;6.37;1.80;;;8.30;99.90;;;;;;5054710;28;20655;-67
2024/02/04 06:36:46;;;;;;;8.30;2.00;;;8.30;99.90;;;;;;5052207;28;20224;-66
2024/02/04 06:39:13;;;;;;;11.50;2.63;;;8.20;99.90;;;;;;5053037;28;20690;-68
2024/02/04 06:41:41;;;;;;;7.13;1.60;;;8.20;99.90;;;;;;5054323;28;20252;-67
2024/02/04 06:44:08;;;;;;;5.77;1.67;;;8.30;99.90;;;;;;5052544;28;20533;-68
2024/02/04 06:46:35;;;;;;;4.03;1.80;;;8.20;99.90;;;;;;5052825;28;20690;-68
2024/02/04 06:49:02;;;;;;;9.73;2.10;;;8.30;99.90;;;;;;5053158;28;20604;-67
2024/02/04 06:51:29;;;;;;;4.43;1.80;;;8.20;99.90;;;;;;5050457;28;20195;-67
2024/02/04 06:53:56;;;;;;;10.60;2.03;;;8.30;99.90;;;;;;5051339;28;20233;-67
2024/02/04 06:56:24;;;;;;;7.43;1.50;;;8.20;99.90;;;;;;5051389;28;20218;-67
2024/02/04 06:58:52;;;;;;;8.83;1.93;;;8.30;99.90;;;;;;5049341;28;20194;-67
2024/02/04 07:01:19;;;;;;;5.77;1.70;;;8.20;99.90;;;;;;5052342;28;20201;-67
2024/02/04 07:03:46;;;;;;;8.20;1.50;;;8.20;99.90;;;;;;5047420;28;20248;-67
2024/02/04 07:06:13;;;;;;;9.67;2.23;;;8.20;99.90;;;;;;5044281;28;20206;-68
2024/02/04 07:08:40;;;;;;;10.53;2.13;;;8.20;99.90;;;;;;5049157;28;20260;-67
2024/02/04 07:11:08;;;;;;;4.87;1.30;;;8.20;99.90;;;;;;5052028;28;20198;-66
2024/02/04 07:13:35;;;;;;;7.67;2.13;;;8.20;99.90;;;;;;5051276;28;20188;-68
2024/02/04 07:16:03;;;;;;;9.10;2.17;;;8.20;99.90;;;;;;5051071;28;20208;-68
2024/02/04 07:18:33;;;;;;;7.00;2.10;;;8.20;99.90;;;;;;5052121;28;20631;-68
2024/02/04 07:21:00;;;;;;;7.47;1.77;;;8.20;99.90;;;;;;5050997;28;20221;-67
2024/02/04 07:23:27;;;;;;;7.47;1.83;;;8.20;99.90;;;;;;5051938;28;20281;-68
2024/02/04 07:25:54;;;;;;;5.73;1.57;;;8.20;99.90;;;;;;5051257;28;20213;-68
2024/02/04 07:28:21;;;;;;;7.30;1.90;;;8.20;99.90;;;;;;5051496;28;20716;-68
2024/02/04 07:30:47;;;;;;;9.83;2.13;;;8.20;99.90;;;;;;5051819;28;20597;-68
2024/02/04 07:33:16;;;;;;;7.17;1.60;;;8.20;99.90;;;;;;5050713;28;20293;-68
2024/02/04 07:35:43;;;;;;;7.77;1.80;;;8.20;99.90;;;;;;5049609;28;20576;-67
2024/02/04 07:38:10;;;;;;;9.03;1.90;;;8.20;99.90;;;;;;5051042;28;20681;-66
2024/02/04 07:40:37;;;;;;;14.27;2.43;;;8.10;99.90;;;;;;5049386;28;20547;-67
2024/02/04 07:43:04;;;;;;;9.70;2.20;;;8.10;99.90;;;;;;5051016;28;20636;-66
2024/02/04 07:45:31;;;;;;;9.30;1.90;;;8.20;99.90;;;;;;5049845;28;20215;-68
2024/02/04 07:47:58;;;;;;;4.40;1.60;;;8.10;99.90;;;;;;5051151;28;20439;-69
2024/02/04 07:50:27;;;;;;;6.43;1.80;;;8.20;99.90;;;;;;5049916;28;20194;-67
2024/02/04 07:52:54;;;;;;;7.57;1.83;;;8.20;99.90;;;;;;5050171;28;20197;-66
2024/02/04 07:55:21;;;;;;;5.53;1.63;;;8.20;99.90;;;;;;5048641;28;20201;-66
2024/02/04 07:57:48;;;;;;;4.67;1.50;;;8.20;99.90;;;;;;5050373;28;20192;-66
2024/02/04 08:00:15;;;;;;;7.77;1.60;;;8.20;99.90;;;;;;5051138;28;20203;-67
2024/02/04 08:02:46;;;;;;;4.20;1.40;;;8.20;99.90;;;;;;5049230;28;20193;-66
2024/02/04 08:05:13;;;;;;;7.83;1.60;;;8.20;99.90;;;;;;5050269;28;20246;-67
2024/02/04 08:07:42;;;;;;;4.77;1.60;;;8.20;99.90;;;;;;5049677;28;20194;-67
2024/02/04 08:10:09;;;;;;;8.83;1.63;;;8.20;99.90;;;;;;5050878;28;20202;-67
2024/02/04 08:12:37;;;;;;;5.53;1.43;;;8.20;99.90;;;;;;5050593;28;20206;-68
2024/02/04 08:15:05;;;;;;;11.67;2.03;;;8.30;99.90;;;;;;5050634;28;20191;-67
2024/02/04 08:17:32;;;;;;;2.87;1.60;;;8.20;99.90;;;;;;5050125;28;20217;-68
2024/02/04 08:19:59;;;;;;;6.80;1.80;;;8.20;99.90;;;;;;5048979;28;20206;-67
2024/02/04 08:22:26;;;;;;;8.53;2.13;;;8.20;99.90;;;;;;5050528;28;20199;-66
2024/02/04 08:24:55;;;;;;;3.80;1.40;;;8.30;99.90;;;;;;5050089;28;20282;-67
2024/02/04 08:27:22;;;;;;;5.03;1.80;;;8.20;99.90;;;;;;5050018;28;20218;-67
2024/02/04 08:29:49;;;;;;;9.03;2.10;;;8.20;99.90;;;;;;5047925;28;20281;-66
2024/02/04 08:32:16;;;;;;;6.17;1.90;;;8.30;99.90;;;;;;5050883;28;20221;-67
2024/02/04 08:34:45;;;;;;;6.83;2.27;;;8.20;99.90;;;;;;5050430;28;20255;-68
2024/02/04 08:37:12;;;;;;;5.20;2.03;;;8.20;99.90;;;;;;5049732;28;20194;-68
2024/02/04 08:39:39;;;;;;;5.43;2.27;;;8.20;99.90;;;;;;5048421;28;20205;-68
2024/02/04 08:42:08;;;;;;;11.03;3.23;;;8.20;99.90;;;;;;5050888;28;20197;-67
2024/02/04 08:44:35;;;;;;;9.83;2.30;;;8.20;99.90;;;;;;5050116;28;20652;-67
2024/02/04 08:47:02;;;;;;;4.93;2.20;;;8.30;99.90;;;;;;5049702;28;20232;-67
2024/02/04 08:49:30;;;;;;;6.23;2.30;;;8.30;99.90;;;;;;5043970;28;20361;-68
2024/02/04 08:51:57;;;;;;;6.67;1.70;;;8.30;99.90;;;;;;5050019;28;20207;-68
2024/02/04 08:54:24;;;;;;;5.87;1.90;;;8.30;99.90;;;;;;5049477;28;20249;-68
2024/02/04 08:56:51;;;;;;;10.87;2.73;;;8.30;99.90;;;;;;5049458;28;20185;-68
2024/02/04 08:59:19;;;;;;;7.07;2.20;;;8.30;99.90;;;;;;5049774;28;20283;-68
2024/02/04 09:01:46;;;;;;;7.00;2.17;;;8.30;99.90;;;;;;5047714;28;20199;-66
2024/02/04 09:04:13;;;;;;;11.67;2.83;;;8.40;99.90;;;;;;5050136;28;20585;-68
2024/02/04 09:06:41;;;;;;;10.53;2.23;;;8.30;99.90;;;;;;5047950;28;20534;-67
2024/02/04 09:09:09;;;;;;;3.77;1.80;;;8.30;99.90;;;;;;5050233;28;20190;-67
2024/02/04 09:11:36;;;;;;;7.73;2.00;;;8.30;99.90;;;;;;5049896;28;20563;-67
2024/02/04 09:14:04;;;;;;;5.03;1.67;;;8.30;99.90;;;;;;5048362;28;20222;-67
2024/02/04 09:16:32;;;;;;;6.27;1.90;;;8.30;99.90;;;;;;5048810;28;20215;-67
2024/02/04 09:18:59;;;;;;;7.80;2.37;;;8.30;99.90;;;;;;5049652;28;20268;-67
2024/02/04 09:21:26;;;;;;;3.13;1.70;;;8.30;99.90;;;;;;5048781;28;20193;-67
2024/02/04 09:23:53;;;;;;;12.10;2.40;;;8.30;99.90;;;;;;5049870;28;20274;-67
2024/02/04 09:26:20;;;;;;;4.20;1.80;;;8.30;99.90;;;;;;5049147;28;20253;-67
2024/02/04 09:28:47;;;;;;;7.40;2.07;;;8.30;99.90;;;;;;5049988;28;20198;-67
2024/02/04 09:31:14;;;;;;;8.17;2.10;;;8.30;99.90;;;;;;5049698;28;20273;-67
2024/02/04 09:33:43;;;;;;;9.00;1.83;;;8.30;99.90;;;;;;5050051;28;20232;-67
2024/02/04 09:36:10;;;;;;;7.63;1.80;;;8.30;99.90;;;;;;5048193;28;20201;-67
2024/02/04 09:38:37;;;;;;;7.07;2.10;;;8.40;99.90;;;;;;5049729;28;20188;-68
2024/02/04 09:41:05;;;;;;;7.33;2.07;;;8.40;99.90;;;;;;5049823;28;20293;-68
2024/02/04 09:43:33;;;;;;;7.60;1.93;;;8.40;99.90;;;;;;5049609;28;20209;-68
2024/02/04 09:46:01;;;;;;;8.23;2.00;;;8.30;99.90;;;;;;5047753;28;20215;-68
2024/02/04 09:48:32;;;;;;;8.80;2.03;;;8.30;99.90;;;;;;5049825;28;20287;-68
2024/02/04 09:51:01;;;;;;;7.10;1.67;;;8.40;99.90;;;;;;5048390;28;20209;-67
2024/02/04 09:53:34;;;;;;;7.90;2.53;;;8.40;99.90;;;;;;5049576;28;20653;-67
2024/02/04 09:56:03;;;;;;;8.60;2.37;;;8.40;99.90;;;;;;5049030;28;20586;-68
2024/02/04 09:58:30;;;;;;;8.20;2.13;;;8.40;99.90;;;;;;5045677;28;20284;-67
2024/02/04 10:00:58;;;;;;;7.00;2.43;;;8.50;99.90;;;;;;5045386;28;20296;-67
2024/02/04 10:03:25;;;;;;;8.43;1.80;;;8.50;99.90;;;;;;5049408;28;20591;-68
2024/02/04 10:05:52;;;;;;;5.83;1.83;;;8.50;99.90;;;;;;5041113;28;20330;-67
2024/02/04 10:08:21;;;;;;;12.80;2.23;;;8.50;99.90;;;;;;5046313;28;20619;-67
2024/02/04 10:10:48;;;;;;;9.40;2.00;;;8.50;99.90;;;;;;5049022;28;20718;-67
2024/02/04 10:13:15;;;;;;;8.10;2.03;;;8.50;99.90;;;;;;5049732;28;20286;-68
2024/02/04 10:15:42;;;;;;;5.87;1.40;;;8.50;99.90;;;;;;5051720;28;20194;-68
2024/02/04 10:18:10;;;;;;;3.80;2.07;;;8.50;99.90;;;;;;5049089;28;20212;-67
2024/02/04 10:20:38;;;;;;;6.00;1.67;;;8.50;99.90;;;;;;5045951;28;20249;-67
2024/02/04 10:23:05;;;;;;;8.20;2.00;;;8.50;99.90;;;;;;5052967;28;20223;-67
2024/02/04 10:25:33;;;;;;;6.50;1.80;;;8.50;99.90;;;;;;5052232;28;20288;-67
2024/02/04 10:28:00;;;;;;;7.73;2.23;;;8.50;99.90;;;;;;5047099;28;20205;-68
2024/02/04 10:30:28;;;;;;;3.57;1.90;;;8.50;99.90;;;;;;5049040;28;20721;-67
2024/02/04 10:32:55;;;;;;;5.33;2.10;;;8.50;99.90;;;;;;5048131;28;20240;-67
2024/02/04 10:35:23;;;;;;;5.60;2.23;;;8.60;99.90;;;;;;5044232;28;20197;-67
2024/02/04 10:37:51;;;;;;;7.10;2.40;;;8.60;99.90;;;;;;5049546;28;20188;-67
2024/02/04 10:40:19;;;;;;;9.63;3.07;;;8.60;99.90;;;;;;5047375;28;20269;-67
2024/02/04 10:42:49;;;;;;;7.57;2.40;;;8.60;99.90;;;;;;5048984;28;20290;-67
2024/02/04 10:45:19;;;;;;;4.93;2.27;;;8.50;99.90;;;;;;5050244;28;20208;-68
2024/02/04 10:47:56;;;;;;;6.63;2.50;;;8.50;99.90;;;;;;5045482;28;20296;-67
2024/02/04 10:50:25;;;;;;;10.93;2.43;;;8.50;99.90;;;;;;5045886;28;20608;-67
2024/02/04 10:52:52;;;;;;;11.17;2.60;;;8.50;99.90;;;;;;5049388;28;20631;-67
2024/02/04 10:55:27;;;;;;;7.77;2.40;;;8.20;99.90;;;;;;5039520;28;20271;-67
2024/02/04 10:57:56;;;;;;;6.47;2.20;;;8.40;99.90;;;;;;5050238;28;20193;-67
2024/02/04 11:00:23;;;;;;;8.10;2.47;;;8.40;99.90;;;;;;5041885;28;20602;-67
2024/02/04 11:02:53;;;;;;;7.17;1.90;;;8.50;99.90;;;;;;5050997;28;20535;-67
2024/02/04 11:05:25;;;;;;;8.93;2.43;;;8.40;99.90;;;;;;5037965;28;21422;-66
2024/02/04 11:07:53;;;;;;;5.77;2.10;;;8.40;99.90;;;;;;5039359;28;20220;-68
2024/02/04 11:10:20;;;;;;;7.33;2.23;;;8.40;99.90;;;;;;5044276;28;20313;-67
2024/02/04 11:12:48;;;;;;;7.70;2.53;;;8.40;99.90;;;;;;5047202;28;20279;-67
2024/02/04 11:15:20;;;;;;;6.70;2.27;;;8.40;99.90;;;;;;5047565;28;20196;-67
2024/02/04 11:18:26;;;;;;;4.50;2.10;;;8.40;99.90;;;;;;5056783;28;20203;-66
2024/02/04 11:21:14;;;;;;;5.63;2.10;;;8.50;99.90;;;;;;5042896;28;20189;-67
2024/02/04 11:23:51;;;;;;;6.83;2.30;;;8.40;99.90;;;;;;5043060;28;20731;-67
2024/02/04 11:26:19;;;;;;;3.97;2.20;;;8.40;99.90;;;;;;5043589;28;20251;-67
2024/02/04 11:28:46;;;;;;;4.63;2.30;;;8.40;99.90;;;;;;5049875;28;20298;-68
2024/02/04 11:31:18;;;;;;;6.67;2.07;;;8.40;99.90;;;;;;5044897;28;20212;-68
2024/02/04 11:33:46;;;;;;;5.77;2.13;;;8.50;99.90;;;;;;5048724;28;20241;-67
2024/02/04 11:36:15;;;;;;;5.00;1.83;;;8.50;99.90;;;;;;5046078;28;20273;-67
2024/02/04 11:38:42;;;;;;;4.90;2.13;;;8.40;99.90;;;;;;5047705;28;20200;-68
2024/02/04 11:41:09;;;;;;;6.60;2.20;;;8.50;99.90;;;;;;5044989;28;20191;-67
2024/02/04 11:43:38;;;;;;;7.93;2.30;;;8.50;99.90;;;;;;5047861;28;20201;-68
2024/02/04 11:46:06;;;;;;;7.00;2.07;;;8.50;99.90;;;;;;5047722;28;20659;-68
2024/02/04 11:48:36;;;;;;;6.80;2.50;;;8.50;99.90;;;;;;5047695;28;20634;-67
2024/02/04 11:51:05;;;;;;;6.33;2.33;;;8.20;99.90;;;;;;5041841;28;20214;-68
2024/02/04 11:53:32;;;;;;;6.30;2.57;;;8.50;99.90;;;;;;5043521;28;20196;-68
2024/02/04 11:56:02;;;;;;;6.57;2.30;;;8.50;99.90;;;;;;5041882;28;20799;-66
2024/02/04 11:58:31;;;;;;;7.53;2.43;;;8.50;99.90;;;;;;5049412;28;20196;-68
2024/02/04 12:00:58;;;;;;;4.80;2.00;;;8.50;99.90;;;;;;5046012;28;20204;-68
2024/02/04 12:03:32;;;;;;;6.63;2.03;;;8.50;99.90;;;;;;5046178;28;20194;-68
2024/02/04 12:06:01;;;;;;;6.23;2.47;;;8.50;99.90;;;;;;5042896;28;20232;-68
2024/02/04 12:08:29;;;;;;;9.43;2.27;;;8.50;99.90;;;;;;5045196;28;20286;-68
2024/02/04 12:10:57;;;;;;;4.30;2.27;;;8.50;99.90;;;;;;5048212;28;20574;-68
2024/02/04 12:13:25;;;;;;;5.97;2.40;;;8.50;99.90;;;;;;5042318;28;20194;-68
2024/02/04 12:15:52;;;;;;;6.77;2.30;;;8.50;99.90;;;;;;5046822;28;20268;-68
2024/02/04 12:18:20;;;;;;;5.83;2.13;;;8.50;99.90;;;;;;5046074;28;20276;-68
2024/02/04 12:20:49;;;;;;;7.17;1.87;;;8.50;99.90;;;;;;5041661;28;20834;-68
2024/02/04 12:23:19;;;;;;;6.13;2.13;;;8.50;99.90;;;;;;5042517;28;20301;-68
2024/02/04 12:25:46;;;;;;;4.07;1.57;;;8.50;99.90;;;;;;5037389;28;20189;-68
2024/02/04 12:28:15;;;;;;;8.37;2.17;;;8.40;99.90;;;;;;5045354;28;20276;-68
2024/02/04 12:30:53;;;;;;;5.80;2.00;;;8.40;99.90;;;;;;5045405;28;20233;-68
2024/02/04 12:33:20;;;;;;;10.97;2.50;;;8.40;99.90;;;;;;5034967;28;20268;-68
2024/02/04 12:35:51;;;;;;;4.97;1.90;;;8.40;99.90;;;;;;5042743;28;20204;-67
2024/02/04 12:38:20;;;;;;;9.07;2.50;;;8.40;99.90;;;;;;5044633;28;20194;-67
2024/02/04 12:40:47;;;;;;;5.53;2.17;;;8.40;99.90;;;;;;5046650;28;20198;-67
2024/02/04 12:43:14;;;;;;;9.53;2.30;;;8.40;99.90;;;;;;5045052;28;20610;-68
2024/02/04 12:45:42;;;;;;;7.13;2.40;;;8.50;99.90;;;;;;5048322;28;20223;-67
2024/02/04 12:48:09;;;;;;;9.17;2.50;;;8.40;99.90;;;;;;5045104;28;20727;-67
2024/02/04 12:50:38;;;;;;;6.67;2.17;;;8.40;99.90;;;;;;5047547;28;20282;-67
2024/02/04 12:53:06;;;;;;;7.97;2.00;;;8.40;99.90;;;;;;5047087;28;20228;-67
2024/02/04 12:55:37;;;;;;;8.43;2.57;;;8.40;99.90;;;;;;5047547;28;20213;-68
2024/02/04 12:58:05;;;;;;;5.20;2.00;;;8.50;99.90;;;;;;5048395;28;20196;-67
2024/02/04 13:00:32;;;;;;;5.70;2.10;;;8.50;99.90;;;;;;5048828;28;20205;-67